Jonican, Kentucky
Current Conditions -  °F | °C
As of 10:35 AM on Friday 24 Oct 2014 (Local Time) from KPBX Reporting Station
Moderate Fog Moderate Fog  
Wind Chill: 42°   Ceiling: 200
Heat Index: 42°   Visibility: 0mi
Dew Point: 42°   Wind: 0mph
Humidity: 99%   Direction: NA
Pressure: 30.14"   Gusts: NA
Location:  37.5004°N, 82.4242°W
Report Text: KPBX 241435Z AUTO 00000KT M1/4SM FG OVC002 06/06 A3014 RMK AO2 T00580056
Loading
Personal Weather Stations






























Interactive Weather Map
Tropical Storm Tracking
New forecast layout! Learn more

10-Day Weather Forecast

Advertisements
Track Severe Weather on mobile